createdAt,value
2023-05-04T00:02:15.214Z,6.30
2023-05-04T00:06:18.567Z,6.30
2023-05-04T00:10:29.533Z,6.40
2023-05-04T00:14:33.163Z,6.40
2023-05-04T00:18:36.522Z,6.50
2023-05-04T00:22:40.121Z,6.50
2023-05-04T00:26:45.605Z,6.50
2023-05-04T00:30:49.344Z,6.50
2023-05-04T00:34:52.809Z,6.50
2023-05-04T00:38:57.598Z,6.50
2023-05-04T00:43:02.420Z,6.50
2023-05-04T00:47:07.051Z,6.60
2023-05-04T00:51:12.148Z,6.60
2023-05-04T00:55:15.880Z,6.70
2023-05-04T00:59:20.826Z,6.70
2023-05-04T01:03:25.957Z,6.70
2023-05-04T01:07:40.062Z,6.70
2023-05-04T01:11:50.105Z,6.60
2023-05-04T01:15:54.975Z,6.70
2023-05-04T01:19:58.574Z,6.60
2023-05-04T01:24:03.599Z,6.60
2023-05-04T01:28:11.578Z,6.60
2023-05-04T01:32:16.770Z,6.50
2023-05-04T01:36:21.670Z,6.40
2023-05-04T01:40:26.657Z,6.30
2023-05-04T01:44:30.260Z,6.20
2023-05-04T01:48:33.607Z,6.10
2023-05-04T01:52:37.001Z,6.00
2023-05-04T01:56:41.703Z,5.90
2023-05-04T02:00:45.559Z,5.90
2023-05-04T02:04:48.848Z,5.80
2023-05-04T02:08:52.378Z,5.70
2023-05-04T02:13:22.014Z,5.70
2023-05-04T02:17:25.373Z,5.60
2023-05-04T02:21:30.461Z,5.60
2023-05-04T02:25:33.873Z,5.50
2023-05-04T02:29:40.133Z,5.50
2023-05-04T02:33:44.258Z,5.40
2023-05-04T02:37:48.716Z,5.40
2023-05-04T02:41:52.057Z,5.40
2023-05-04T02:45:59.302Z,5.30
2023-05-04T02:50:03.002Z,5.30
2023-05-04T02:54:10.830Z,5.20
2023-05-04T02:58:14.181Z,5.20
2023-05-04T03:02:19.139Z,5.10
2023-05-04T03:06:22.495Z,5.10
2023-05-04T03:10:26.093Z,5.00
2023-05-04T03:14:31.582Z,5.00
2023-05-04T03:18:36.506Z,5.00
2023-05-04T03:22:44.897Z,4.90
2023-05-04T03:26:48.431Z,4.90
2023-05-04T03:30:52.169Z,4.90
2023-05-04T03:34:58.497Z,5.00
2023-05-04T03:39:03.925Z,5.00
2023-05-04T03:43:07.836Z,5.10
2023-05-04T03:47:12.400Z,5.40
2023-05-04T03:51:17.270Z,6.20
2023-05-04T03:55:21.033Z,7.00
2023-05-04T03:59:26.835Z,8.20
2023-05-04T04:03:31.229Z,9.40
2023-05-04T04:07:36.430Z,10.80
2023-05-04T04:11:44.864Z,12.20
2023-05-04T04:15:53.980Z,13.50
2023-05-04T04:19:57.500Z,14.90
2023-05-04T04:24:02.437Z,16.10
2023-05-04T04:29:03.891Z,17.10
2023-05-04T04:33:07.402Z,17.90
2023-05-04T04:37:10.774Z,19.10
2023-05-04T04:41:20.821Z,20.00
2023-05-04T04:45:24.429Z,20.50
2023-05-04T04:49:27.774Z,21.20
2023-05-04T04:53:35.118Z,21.60
2023-05-04T04:57:39.943Z,22.20
2023-05-04T05:01:47.054Z,22.70
2023-05-04T05:05:50.324Z,21.90
2023-05-04T05:09:56.004Z,22.40
2023-05-04T05:15:15.122Z,24.10
2023-05-04T05:19:20.037Z,26.10
2023-05-04T05:23:23.416Z,25.60
2023-05-04T05:27:34.333Z,25.80
2023-05-04T05:31:37.783Z,26.20
2023-05-04T05:35:54.904Z,27.20
2023-05-04T05:39:58.432Z,28.40
2023-05-04T05:44:01.794Z,30.30
2023-05-04T05:48:05.736Z,31.50
2023-05-04T05:52:10.524Z,30.30
2023-05-04T05:56:15.035Z,26.80
2023-05-04T06:00:31.146Z,23.40
2023-05-04T06:04:34.688Z,20.90
2023-05-04T06:08:55.924Z,18.90
2023-05-04T06:13:49.128Z,17.70
2023-05-04T06:17:52.577Z,16.30
2023-05-04T06:21:56.034Z,15.40
2023-05-04T06:26:26.209Z,14.50
2023-05-04T06:30:29.686Z,14.30
2023-05-04T06:34:35.389Z,14.10
2023-05-04T06:38:39.212Z,13.60
2023-05-04T06:42:44.317Z,13.60
2023-05-04T06:47:12.737Z,13.40
2023-05-04T06:51:16.256Z,13.30
2023-05-04T06:55:20.117Z,13.10
2023-05-04T06:59:27.203Z,12.70
2023-05-04T07:03:30.623Z,11.90
2023-05-04T07:07:35.318Z,11.60
2023-05-04T07:11:38.623Z,11.70
2023-05-04T07:15:43.735Z,11.30
2023-05-04T07:19:49.999Z,11.20
2023-05-04T07:23:53.493Z,11.30
2023-05-04T07:27:58.497Z,11.00
2023-05-04T07:32:03.437Z,11.20
2023-05-04T07:36:07.622Z,11.00
2023-05-04T07:40:12.031Z,11.40
2023-05-04T07:44:19.091Z,11.20
2023-05-04T07:48:26.161Z,11.30
2023-05-04T07:52:30.065Z,11.60
2023-05-04T07:56:33.444Z,11.20
2023-05-04T08:00:36.796Z,11.60
2023-05-04T08:04:47.918Z,11.50
2023-05-04T08:08:52.903Z,11.40
2023-05-04T08:12:57.088Z,11.80
2023-05-04T08:17:00.852Z,11.50
2023-05-04T08:21:06.094Z,11.60
2023-05-04T08:25:10.758Z,11.60
2023-05-04T08:29:14.283Z,11.60
2023-05-04T08:33:18.754Z,11.50
2023-05-04T08:37:23.664Z,11.40
2023-05-04T08:41:27.304Z,11.80
2023-05-04T08:45:30.887Z,11.50
2023-05-04T08:49:34.486Z,11.70
2023-05-04T08:53:45.644Z,11.70
2023-05-04T08:57:51.066Z,12.10
2023-05-04T09:01:59.461Z,12.00
2023-05-04T09:06:03.072Z,12.20
2023-05-04T09:10:10.298Z,12.60
2023-05-04T09:14:13.852Z,13.00
2023-05-04T09:18:17.342Z,13.10
2023-05-04T09:22:23.887Z,13.20
2023-05-04T09:26:33.353Z,12.80
2023-05-04T09:30:36.799Z,13.20
2023-05-04T09:34:48.600Z,13.00
2023-05-04T09:38:51.944Z,13.00
2023-05-04T09:43:01.184Z,12.80
2023-05-04T09:47:04.652Z,13.00
2023-05-04T09:51:08.398Z,13.10
2023-05-04T09:55:14.565Z,13.40
2023-05-04T09:59:31.787Z,13.50
2023-05-04T10:03:35.427Z,13.60
2023-05-04T10:07:41.453Z,13.40
2023-05-04T10:11:46.277Z,13.10
2023-05-04T10:16:15.382Z,13.40
2023-05-04T10:20:44.085Z,13.70
2023-05-04T10:25:02.788Z,14.20
2023-05-04T10:29:21.267Z,14.20
2023-05-04T10:33:27.902Z,14.00
2023-05-04T10:37:36.334Z,13.90
2023-05-04T10:41:39.862Z,14.20
2023-05-04T10:45:44.028Z,14.60
2023-05-04T10:49:50.245Z,15.00
2023-05-04T10:53:54.531Z,15.20
2023-05-04T10:57:59.012Z,15.40
2023-05-04T11:02:03.806Z,15.70
2023-05-04T11:06:16.992Z,16.00
2023-05-04T11:10:24.594Z,16.20
2023-05-04T11:14:30.090Z,16.40
2023-05-04T11:19:08.603Z,16.50
2023-05-04T11:27:35.922Z,16.50
2023-05-04T11:31:41.002Z,16.00
2023-05-04T11:35:45.799Z,15.90
2023-05-04T11:39:51.355Z,16.10
2023-05-04T11:43:55.208Z,16.20
2023-05-04T11:47:59.224Z,16.00
2023-05-04T11:52:12.866Z,15.60
2023-05-04T11:56:17.701Z,15.90
2023-05-04T12:00:44.012Z,16.10
2023-05-04T12:04:47.568Z,16.10
2023-05-04T12:09:02.734Z,16.40
2023-05-04T12:13:19.035Z,16.70
2023-05-04T12:17:22.650Z,16.70
2023-05-04T12:21:26.235Z,16.30
2023-05-04T12:25:29.714Z,16.00
2023-05-04T12:29:39.356Z,16.10
2023-05-04T12:33:42.804Z,16.20
2023-05-04T12:37:50.889Z,16.10
2023-05-04T12:41:54.267Z,16.10
2023-05-04T12:45:59.229Z,16.20
2023-05-04T12:50:05.324Z,16.50
2023-05-04T12:54:08.708Z,16.90
2023-05-04T12:58:13.280Z,16.60
2023-05-04T13:02:18.212Z,16.20
2023-05-04T13:06:25.641Z,16.40
2023-05-04T13:10:29.098Z,16.80
2023-05-04T13:18:43.735Z,17.00
2023-05-04T13:22:50.627Z,17.40
2023-05-04T13:26:54.153Z,17.00
2023-05-04T13:30:57.867Z,16.90
2023-05-04T13:35:08.698Z,17.10
2023-05-04T13:39:12.425Z,17.30
2023-05-04T13:43:17.944Z,17.30
2023-05-04T13:47:21.401Z,17.00
2023-05-04T13:51:27.082Z,17.10
2023-05-04T13:55:30.631Z,17.10
2023-05-04T13:59:34.458Z,17.10
2023-05-04T14:03:38.030Z,16.80
2023-05-04T14:07:42.939Z,16.60
2023-05-04T14:11:54.849Z,16.80
2023-05-04T14:15:58.881Z,17.00
2023-05-04T14:20:09.037Z,16.90
2023-05-04T14:24:13.910Z,17.10
2023-05-04T14:28:26.227Z,17.20
2023-05-04T14:32:29.712Z,17.30
2023-05-04T14:36:35.404Z,17.20
2023-05-04T14:40:40.228Z,17.30
2023-05-04T14:44:48.774Z,17.90
2023-05-04T14:48:52.243Z,18.20
2023-05-04T14:52:55.779Z,17.60
2023-05-04T14:57:51.725Z,17.40
2023-05-04T15:01:57.704Z,16.80
2023-05-04T15:06:01.436Z,16.70
2023-05-04T15:10:07.048Z,16.70
2023-05-04T15:14:10.753Z,16.60
2023-05-04T15:18:15.990Z,16.70
2023-05-04T15:22:19.433Z,16.50
2023-05-04T15:26:24.129Z,16.50
2023-05-04T15:30:27.582Z,16.70
2023-05-04T15:34:53.864Z,16.70
2023-05-04T15:39:05.955Z,16.70
2023-05-04T15:43:11.564Z,17.20
2023-05-04T15:47:15.010Z,17.70
2023-05-04T15:51:30.907Z,17.60
2023-05-04T15:55:34.338Z,17.30
2023-05-04T15:59:38.917Z,17.10
2023-05-04T16:03:43.171Z,17.20
2023-05-04T16:07:48.596Z,17.00
2023-05-04T16:11:53.498Z,17.30
2023-05-04T16:15:58.155Z,17.40
2023-05-04T16:20:01.661Z,17.10
2023-05-04T16:24:07.795Z,16.70
2023-05-04T16:29:03.441Z,16.70
2023-05-04T16:33:07.208Z,16.80
2023-05-04T16:37:11.710Z,16.80
2023-05-04T16:41:30.914Z,16.40
2023-05-04T16:45:34.448Z,16.30
2023-05-04T16:49:37.915Z,16.20
2023-05-04T16:53:43.558Z,16.20
2023-05-04T16:57:48.536Z,16.10
2023-05-04T17:01:52.066Z,16.00
2023-05-04T17:05:55.645Z,15.90
2023-05-04T17:09:59.124Z,15.80
2023-05-04T17:14:08.593Z,15.70
2023-05-04T17:18:12.065Z,15.50
2023-05-04T17:22:18.823Z,15.40
2023-05-04T17:26:22.524Z,15.30
2023-05-04T17:30:27.974Z,15.20
2023-05-04T17:34:32.377Z,15.00
2023-05-04T17:38:37.988Z,14.90
2023-05-04T17:42:42.516Z,14.70
2023-05-04T17:46:52.609Z,14.60
2023-05-04T17:50:56.449Z,14.40
2023-05-04T17:54:59.988Z,14.20
2023-05-04T17:59:03.799Z,14.10
2023-05-04T18:03:14.814Z,13.90
2023-05-04T18:07:18.287Z,13.80
2023-05-04T18:11:40.261Z,13.60
2023-05-04T18:15:49.105Z,13.40
2023-05-04T18:19:53.904Z,13.30
2023-05-04T18:23:57.336Z,13.10
2023-05-04T18:28:01.595Z,13.00
2023-05-04T18:32:08.209Z,12.90
2023-05-04T18:36:13.323Z,12.80
2023-05-04T18:40:17.353Z,12.70
2023-05-04T18:44:20.994Z,12.60
2023-05-04T18:48:25.859Z,12.50
2023-05-04T18:52:30.744Z,12.40
2023-05-04T18:56:34.550Z,12.30
2023-05-04T19:00:38.333Z,12.20
2023-05-04T19:04:42.705Z,12.10
2023-05-04T19:08:47.690Z,12.10
2023-05-04T19:13:10.160Z,12.10
2023-05-04T19:17:36.380Z,12.00
2023-05-04T19:22:31.267Z,11.90
2023-05-04T19:26:47.332Z,11.90
2023-05-04T19:30:52.986Z,11.80
2023-05-04T19:34:58.521Z,11.80
2023-05-04T19:39:02.000Z,11.70
2023-05-04T19:43:13.031Z,11.70
2023-05-04T19:47:16.424Z,11.60
2023-05-04T19:51:24.009Z,11.60
2023-05-04T19:55:27.407Z,11.50
2023-05-04T19:59:32.412Z,11.50
2023-05-04T20:03:35.724Z,11.40
2023-05-04T20:07:41.319Z,11.30
2023-05-04T20:11:44.711Z,11.30
2023-05-04T20:15:49.759Z,11.20
2023-05-04T20:19:54.202Z,11.20
2023-05-04T20:23:57.668Z,11.10
2023-05-04T20:28:02.174Z,11.00
2023-05-04T20:32:08.998Z,11.00
2023-05-04T20:36:12.699Z,10.90
2023-05-04T20:40:17.287Z,10.80
2023-05-04T20:44:20.867Z,10.80
2023-05-04T20:48:25.715Z,10.70
2023-05-04T20:52:29.109Z,10.70
2023-05-04T20:56:32.530Z,10.60
2023-05-04T21:00:38.106Z,10.60
2023-05-04T21:04:43.482Z,10.50
2023-05-04T21:08:48.011Z,10.50
2023-05-04T21:12:53.601Z,10.40
2023-05-04T21:16:56.964Z,10.40
2023-05-04T21:21:04.195Z,10.30
2023-05-04T21:25:08.089Z,10.30
2023-05-04T21:29:14.897Z,10.20
2023-05-04T21:33:18.373Z,10.20
2023-05-04T21:37:25.274Z,10.10
2023-05-04T21:41:28.592Z,10.10
2023-05-04T21:45:37.539Z,10.00
2023-05-04T21:49:40.845Z,9.90
2023-05-04T21:53:46.349Z,9.90
2023-05-04T21:57:49.749Z,9.90
2023-05-04T22:01:53.331Z,9.80
2023-05-04T22:05:57.934Z,9.70
2023-05-04T22:10:03.255Z,9.70
2023-05-04T22:14:07.731Z,9.60
2023-05-04T22:18:11.345Z,9.60
2023-05-04T22:22:15.946Z,9.50
2023-05-04T22:26:20.851Z,9.50
2023-05-04T22:30:25.927Z,9.40
2023-05-04T22:34:29.368Z,9.40
2023-05-04T22:38:57.566Z,9.30
2023-05-04T22:43:02.377Z,9.30
2023-05-04T22:47:05.982Z,9.20
2023-05-04T22:51:09.594Z,9.20
2023-05-04T22:55:17.126Z,9.10
2023-05-04T22:59:21.939Z,9.10
2023-05-04T23:03:27.386Z,9.00
2023-05-04T23:07:31.220Z,9.00
2023-05-04T23:11:38.061Z,9.00
2023-05-04T23:15:46.609Z,9.00
2023-05-04T23:19:50.062Z,9.00
2023-05-04T23:23:53.787Z,9.10
2023-05-04T23:27:57.164Z,9.20
2023-05-04T23:32:02.249Z,9.20
2023-05-04T23:36:06.522Z,9.10
2023-05-04T23:40:11.372Z,9.00
2023-05-04T23:44:15.006Z,8.90
2023-05-04T23:48:19.864Z,8.90
2023-05-04T23:52:23.359Z,8.90
2023-05-04T23:56:27.455Z,8.90
